Time;durP1;ratioP1;P1;durP2;ratioP2;P2;SDS_P1;SDS_P2;PMS_P1;PMS_P2;Temp;Humidity;BMP_temperature;BMP_pressure;BME280_temperature;BME280_humidity;BME280_pressure;Samples;Min_cycle;Max_cycle;Signal;HPM_P1;HPM_P2
2021/11/01 00:01:28;;;;;;;40.77;35.77;;;;;;;9.48;76.83;98633.25;5063257;28;20502;-77
2021/11/01 00:04:03;;;;;;;45.53;38.10;;;;;;;9.46;76.81;98624.66;5064512;28;20232;-77
2021/11/01 00:06:31;;;;;;;45.07;38.37;;;;;;;9.36;77.16;98623.63;5045830;28;20225;-77
2021/11/01 00:08:57;;;;;;;42.13;37.23;;;;;;;9.40;77.22;98619.44;5063421;28;20308;-77
2021/11/01 00:11:24;;;;;;;44.87;37.87;;;;;;;9.38;77.52;98627.69;5061721;28;20304;-77
2021/11/01 00:13:53;;;;;;;43.57;38.43;;;;;;;9.22;77.46;98620.41;5061508;28;20337;-77
2021/11/01 00:16:20;;;;;;;43.33;38.50;;;;;;;9.28;77.87;98608.78;5060933;28;20244;-77
2021/11/01 00:18:48;;;;;;;45.00;38.53;;;;;;;9.36;77.51;98616.44;5081611;22;20229;-77
2021/11/01 00:21:17;;;;;;;43.13;38.43;;;;;;;9.16;77.81;98619.47;5066746;28;20213;-77
2021/11/01 00:23:45;;;;;;;44.60;39.03;;;;;;;9.17;77.41;98614.94;5085556;28;20185;-77
2021/11/01 00:26:20;;;;;;;41.70;37.23;;;;;;;9.10;77.75;98611.56;5084507;28;20225;-77
2021/11/01 00:28:48;;;;;;;42.47;37.77;;;;;;;9.21;77.64;98611.56;5049003;28;20232;-77
2021/11/01 00:31:24;;;;;;;42.33;37.63;;;;;;;9.32;77.01;98612.59;5066406;28;20223;-77
2021/11/01 00:33:52;;;;;;;44.10;39.30;;;;;;;9.20;77.81;98619.81;5081607;28;20201;-77
2021/11/01 00:36:18;;;;;;;43.83;38.43;;;;;;;9.11;77.92;98605.19;5080034;28;20232;-76
2021/11/01 00:38:46;;;;;;;44.07;37.77;;;;;;;9.23;77.04;98597.97;5064697;28;20236;-77
2021/11/01 00:41:13;;;;;;;44.27;38.10;;;;;;;9.12;77.83;98606.81;5081502;28;20276;-76
2021/11/01 00:43:40;;;;;;;43.47;38.77;;;;;;;9.07;78.11;98596.03;5045903;28;20260;-77
2021/11/01 00:46:07;;;;;;;43.97;39.17;;;;;;;9.12;78.00;98596.94;5064370;28;20184;-77
2021/11/01 00:48:34;;;;;;;45.00;38.53;;;;;;;9.14;77.47;98596.72;5066314;23;20303;-77
2021/11/01 00:51:01;;;;;;;46.23;39.07;;;;;;;9.05;77.35;98595.47;5061605;28;20245;-76
2021/11/01 00:53:31;;;;;;;46.00;38.00;;;;;;;8.95;78.02;98579.22;5078985;28;20466;-76
2021/11/01 00:56:00;;;;;;;42.83;37.87;;;;;;;9.08;78.26;98589.63;5046744;28;20228;-77
2021/11/01 00:58:33;;;;;;;42.30;37.80;;;;;;;9.05;78.16;98590.13;5061148;28;20231;-77
2021/11/01 01:01:00;;;;;;;43.23;38.53;;;;;;;8.95;77.75;98571.19;5064769;28;20225;-77
2021/11/01 01:03:31;;;;;;;41.93;37.33;;;;;;;8.95;78.06;98574.69;5063783;28;20255;-77
2021/11/01 01:06:01;;;;;;;42.30;37.60;;;;;;;9.03;77.94;98576.16;5062676;28;20209;-77
2021/11/01 01:08:34;;;;;;;43.93;37.37;;;;;;;8.95;77.85;98564.00;5061952;28;20229;-77
2021/11/01 01:11:05;;;;;;;44.13;38.03;;;;;;;9.05;77.67;98566.84;5064270;28;20229;-76
2021/11/01 01:13:38;;;;;;;43.47;36.07;;;;;;;9.03;78.40;98562.81;5064535;28;20525;-76
2021/11/01 01:16:22;;;;;;;43.17;37.17;;;;;;;9.02;77.90;98575.34;5048172;28;20392;-77
2021/11/01 01:18:59;;;;;;;43.10;37.63;;;;;;;9.02;77.23;98553.97;5064791;28;20193;-77
2021/11/01 01:24:13;;;;;;;42.77;36.63;;;;;;;8.98;78.07;98549.34;5062259;28;20228;-77
2021/11/01 01:26:40;;;;;;;43.50;36.90;;;;;;;8.91;78.16;98543.34;5045002;28;20234;-77
2021/11/01 01:29:11;;;;;;;41.20;35.77;;;;;;;8.90;78.38;98539.84;5044395;28;20396;-77
2021/11/01 01:31:41;;;;;;;41.33;36.83;;;;;;;8.88;77.91;98544.59;5059751;28;20655;-77
2021/11/01 01:34:09;;;;;;;40.47;35.47;;;;;;;9.05;77.90;98542.81;5060219;28;20308;-77
2021/11/01 01:36:38;;;;;;;42.63;36.00;;;;;;;8.94;78.00;98545.53;5065568;28;20567;-77
2021/11/01 01:39:08;;;;;;;41.70;36.23;;;;;;;8.86;78.02;98548.56;5066874;28;20204;-77
2021/11/01 01:41:37;;;;;;;41.13;35.57;;;;;;;8.89;78.59;98545.41;5066497;28;20229;-77
2021/11/01 01:44:08;;;;;;;41.93;37.37;;;;;;;8.93;78.02;98533.19;5063047;28;20352;-77
2021/11/01 01:46:38;;;;;;;41.40;36.90;;;;;;;8.76;78.29;98525.94;5066504;28;20569;-77
2021/11/01 01:49:07;;;;;;;42.57;37.87;;;;;;;8.87;78.22;98534.94;5049572;28;20279;-77
2021/11/01 01:51:35;;;;;;;42.80;37.33;;;;;;;8.83;77.95;98531.13;5048194;28;20229;-77
2021/11/01 01:54:04;;;;;;;43.17;37.90;;;;;;;8.81;78.28;98525.22;5049698;28;20277;-77
2021/11/01 01:56:31;;;;;;;44.67;38.33;;;;;;;8.70;78.54;98521.50;5047333;28;20221;-77
2021/11/01 01:59:06;;;;;;;44.83;39.83;;;;;;;8.72;78.52;98535.47;5051098;28;20234;-78
2021/11/01 02:01:36;;;;;;;44.80;39.60;;;;;;;8.60;78.83;98531.97;5083057;28;20219;-77
2021/11/01 02:04:04;;;;;;;47.43;40.73;;;;;;;8.56;79.15;98527.31;5066850;28;20229;-77
2021/11/01 02:07:07;;;;;;;48.10;41.20;;;;;;;8.57;78.76;98524.44;5050308;28;20653;-76
2021/11/01 02:10:04;;;;;;;50.27;41.33;;;;;;;8.52;79.23;98518.97;5063920;28;20223;-77
2021/11/01 02:12:43;;;;;;;45.50;39.60;;;;;;;8.47;79.81;98515.38;5065417;28;20253;-77
2021/11/01 02:15:20;;;;;;;48.20;40.80;;;;;;;8.38;79.61;98513.06;5066180;28;20201;-77
2021/11/01 02:17:49;;;;;;;48.43;42.07;;;;;;;8.46;79.73;98500.41;5065198;28;20243;-77
2021/11/01 02:20:19;;;;;;;48.10;41.30;;;;;;;8.38;79.82;98493.56;5066248;28;20535;-77
2021/11/01 02:23:02;;;;;;;49.03;41.73;;;;;;;8.35;79.90;98505.50;5049046;28;20639;-77
2021/11/01 02:25:42;;;;;;;48.00;42.00;;;;;;;8.24;80.40;98503.63;5048659;28;20547;-77
2021/11/01 02:28:11;;;;;;;48.00;41.73;;;;;;;8.10;80.57;98488.91;5048178;28;20221;-77
2021/11/01 02:30:39;;;;;;;51.17;41.30;;;;;;;8.12;80.67;98496.69;5064922;28;20706;-77
2021/11/01 02:33:09;;;;;;;48.53;41.63;;;;;;;8.10;81.30;98499.56;5061768;28;20723;-77
2021/11/01 02:35:38;;;;;;;49.23;41.90;;;;;;;8.09;81.65;98497.94;5047121;28;20221;-77
2021/11/01 02:38:06;;;;;;;50.67;41.77;;;;;;;8.06;80.87;98484.25;5061841;28;20229;-77
2021/11/01 02:40:34;;;;;;;48.70;41.30;;;;;;;7.99;80.88;98484.34;5079516;28;20229;-77
2021/11/01 02:43:04;;;;;;;48.43;41.20;;;;;;;7.79;81.85;98481.22;5062343;28;20225;-77
2021/11/01 02:45:34;;;;;;;51.33;41.13;;;;;;;7.96;81.91;98482.16;5063077;28;20226;-77
2021/11/01 02:48:11;;;;;;;47.20;41.10;;;;;;;7.90;81.83;98480.41;5062515;28;20237;-77
2021/11/01 02:50:39;;;;;;;48.10;41.00;;;;;;;7.91;81.87;98482.03;5063470;28;20304;-77
2021/11/01 02:53:08;;;;;;;48.83;41.83;;;;;;;7.81;82.35;98466.59;5062007;28;20245;-77
2021/11/01 02:55:36;;;;;;;49.67;42.13;;;;;;;7.89;81.87;98476.91;5063232;28;20645;-76
2021/11/01 02:58:11;;;;;;;49.93;42.33;;;;;;;7.82;81.57;98472.75;5062157;28;20224;-77
2021/11/01 03:00:40;;;;;;;50.07;42.10;;;;;;;7.84;81.51;98492.78;5080621;28;20545;-76
2021/11/01 03:03:10;;;;;;;50.83;42.30;;;;;;;7.71;82.15;98470.84;5062988;28;20256;-77
2021/11/01 03:05:40;;;;;;;49.67;41.20;;;;;;;7.70;82.33;98487.91;5062311;28;20312;-77
2021/11/01 03:08:07;;;;;;;49.40;41.43;;;;;;;7.74;82.97;98475.75;5061256;28;20213;-76
2021/11/01 03:10:34;;;;;;;50.87;42.17;;;;;;;7.77;82.20;98464.63;5063609;28;20229;-77
2021/11/01 03:13:01;;;;;;;50.60;42.80;;;;;;;7.73;82.47;98464.28;5044295;28;20233;-77
2021/11/01 03:15:29;;;;;;;49.43;42.67;;;;;;;7.70;82.15;98464.72;5045169;28;20233;-76
2021/11/01 03:18:02;;;;;;;52.23;43.90;;;;;;;7.70;82.79;98482.59;5048670;28;20221;-77
2021/11/01 03:20:31;;;;;;;50.43;42.80;;;;;;;7.62;82.50;98467.72;5062193;28;20235;-77
2021/11/01 03:23:05;;;;;;;52.60;44.70;;;;;;;7.65;83.00;98472.56;5063053;28;20283;-77
2021/11/01 03:25:55;;;;;;;52.17;44.63;;;;;;;7.57;82.66;98469.44;5063054;28;20316;-77
2021/11/01 03:28:23;;;;;;;55.30;45.47;;;;;;;7.52;83.26;98465.59;5058050;28;20242;-76
2021/11/01 03:30:55;;;;;;;54.50;44.93;;;;;;;7.52;83.01;98472.78;5064292;28;20276;-76
2021/11/01 03:33:23;;;;;;;55.10;45.80;;;;;;;7.50;83.26;98457.03;5064893;23;20262;-77
2021/11/01 03:35:51;;;;;;;55.77;45.73;;;;;;;7.46;83.18;98466.53;5025359;28;20242;-77
2021/11/01 03:38:21;;;;;;;56.33;47.67;;;;;;;7.42;83.44;98453.88;5040297;28;20257;-77
2021/11/01 03:40:49;;;;;;;58.53;48.07;;;;;;;7.44;83.73;98459.78;5024639;28;20303;-77
2021/11/01 03:43:28;;;;;;;57.17;47.03;;;;;;;7.45;83.95;98459.56;5039624;28;20209;-77
2021/11/01 03:45:58;;;;;;;55.83;46.50;;;;;;;7.36;84.26;98454.78;5039998;28;20251;-77
2021/11/01 03:48:34;;;;;;;57.23;46.87;;;;;;;7.28;84.04;98458.56;5023877;28;20658;-77
2021/11/01 03:51:26;;;;;;;56.33;46.90;;;;;;;7.39;83.86;98470.31;5041923;28;20226;-77
2021/11/01 03:53:53;;;;;;;60.37;48.33;;;;;;;7.25;84.48;98456.38;5041748;28;20230;-77
2021/11/01 03:56:26;;;;;;;56.83;48.20;;;;;;;7.17;84.29;98464.69;5038250;28;20218;-77
2021/11/01 03:58:52;;;;;;;57.20;48.03;;;;;;;7.29;85.01;98470.03;5044061;28;20282;-77
2021/11/01 04:01:21;;;;;;;55.00;47.30;;;;;;;7.28;84.45;98463.13;5042474;28;20226;-77
2021/11/01 04:04:10;;;;;;;60.57;48.37;;;;;;;7.21;84.58;98468.53;5029086;28;20309;-76
2021/11/01 04:06:41;;;;;;;59.97;49.60;;;;;;;7.32;85.07;98448.31;5047206;28;20210;-77
2021/11/01 04:09:18;;;;;;;59.97;49.20;;;;;;;7.24;84.61;98440.59;5044688;28;20213;-77
2021/11/01 04:11:50;;;;;;;62.53;50.57;;;;;;;7.30;84.43;98453.84;5044923;28;20213;-77
2021/11/01 04:14:29;;;;;;;58.57;49.67;;;;;;;7.26;84.79;98442.03;5024325;28;20233;-77
2021/11/01 04:17:00;;;;;;;57.23;48.77;;;;;;;7.20;84.76;98434.09;5043575;28;20214;-76
2021/11/01 04:19:36;;;;;;;60.23;50.20;;;;;;;7.18;85.03;98436.22;5042847;28;20230;-77
2021/11/01 04:22:04;;;;;;;58.40;49.57;;;;;;;7.23;84.27;98457.66;5025825;28;20272;-77
2021/11/01 04:24:32;;;;;;;59.33;48.90;;;;;;;7.05;84.84;98440.66;5041789;28;20218;-77
2021/11/01 04:27:00;;;;;;;58.80;50.70;;;;;;;7.15;84.84;98456.09;5042109;28;20226;-78
2021/11/01 04:29:32;;;;;;;64.37;51.23;;;;;;;7.23;85.16;98458.44;5039308;28;20256;-77
2021/11/01 04:32:10;;;;;;;62.33;50.77;;;;;;;7.22;84.16;98453.34;5047638;28;20236;-77
2021/11/01 04:34:41;;;;;;;62.07;51.50;;;;;;;7.06;84.24;98434.31;5044048;28;20229;-77
2021/11/01 04:37:13;;;;;;;64.40;51.33;;;;;;;7.08;84.72;98450.06;5062097;28;20240;-77
2021/11/01 04:53:26;;;;;;;60.70;51.27;;;;;;;7.00;85.05;98435.19;5047039;28;20210;-77
2021/11/01 04:55:55;;;;;;;64.67;52.27;;;;;;;7.02;85.74;98438.47;5044655;28;20280;-77
2021/11/01 04:58:27;;;;;;;64.67;53.47;;;;;;;6.87;85.83;98439.88;5061975;28;20221;-77
2021/11/01 05:00:56;;;;;;;63.50;52.00;;;;;;;6.87;85.94;98427.38;5061342;28;20260;-77
2021/11/01 05:03:38;;;;;;;65.57;53.30;;;;;;;6.99;85.94;98446.09;5059852;28;20221;-77
2021/11/01 05:06:06;;;;;;;68.20;53.00;;;;;;;7.01;85.60;98433.34;5062555;28;20208;-77
2021/11/01 05:08:47;;;;;;;63.83;50.37;;;;;;;6.99;85.92;98422.13;5062260;28;20225;-77
2021/11/01 05:11:32;;;;;;;64.47;52.10;;;;;;;7.02;85.71;98437.63;5064530;28;20213;-77
2021/11/01 05:14:04;;;;;;;66.03;53.77;;;;;;;6.99;85.88;98436.25;5065087;28;20224;-77
2021/11/01 05:19:39;;;;;;;64.20;52.67;;;;;;;6.89;85.99;98435.16;5064927;28;20275;-76
2021/11/01 05:22:12;;;;;;;66.13;53.53;;;;;;;6.84;86.20;98433.16;5053682;28;20279;-77
2021/11/01 05:24:48;;;;;;;66.87;53.50;;;;;;;6.86;86.20;98419.66;5065695;28;20240;-77
2021/11/01 05:27:53;;;;;;;68.70;53.67;;;;;;;6.91;86.02;98431.22;5080108;28;20231;-77
2021/11/01 05:30:34;;;;;;;66.57;53.63;;;;;;;6.88;86.48;98429.03;5064255;28;20233;-77
2021/11/01 05:33:21;;;;;;;66.47;52.70;;;;;;;6.89;85.91;98425.31;5064504;28;20236;-77
2021/11/01 05:35:51;;;;;;;66.47;52.50;;;;;;;6.96;86.27;98426.03;5066599;28;20225;-76
2021/11/01 05:38:20;;;;;;;67.13;51.33;;;;;;;6.96;86.26;98423.38;5051438;28;20209;-77
2021/11/01 05:40:49;;;;;;;65.70;51.73;;;;;;;6.87;86.08;98411.41;5066071;28;20237;-77
2021/11/01 05:43:16;;;;;;;64.67;52.67;;;;;;;6.89;86.12;98412.00;5063740;28;20217;-77
2021/11/01 05:45:44;;;;;;;62.50;51.50;;;;;;;6.83;86.10;98406.75;5047512;28;20264;-77
2021/11/01 05:48:12;;;;;;;65.17;52.23;;;;;;;6.90;86.57;98429.63;5066040;28;20255;-77
2021/11/01 05:50:40;;;;;;;63.50;52.93;;;;;;;6.96;85.69;98426.03;5079901;28;20623;-77
2021/11/01 05:53:10;;;;;;;62.67;51.70;;;;;;;6.91;85.91;98414.44;5064334;28;20199;-77
2021/11/01 05:55:56;;;;;;;64.97;50.47;;;;;;;6.91;86.23;98422.41;5063401;28;20236;-77
2021/11/01 05:58:42;;;;;;;62.83;50.03;;;;;;;6.96;85.79;98422.56;5063352;28;20217;-77
2021/11/01 06:04:03;;;;;;;64.37;51.03;;;;;;;6.95;85.86;98416.41;5066106;28;20579;-76
2021/11/01 06:14:54;;;;;;;60.53;50.17;;;;;;;7.11;85.81;98438.13;5065052;28;20601;-77
2021/11/01 06:17:31;;;;;;;62.27;48.77;;;;;;;7.16;85.02;98446.25;5066938;28;20233;-76
2021/11/01 06:19:58;;;;;;;61.57;49.30;;;;;;;7.21;85.60;98451.72;5080306;22;20220;-76
2021/11/01 06:22:27;;;;;;;61.27;49.10;;;;;;;7.27;85.13;98437.50;5068546;28;20286;-77
2021/11/01 06:24:57;;;;;;;63.70;49.73;;;;;;;7.34;84.32;98438.22;5086177;28;20506;-77
2021/11/01 06:27:28;;;;;;;58.63;47.67;;;;;;;7.32;84.56;98440.31;5070584;28;20360;-77
2021/11/01 06:40:46;;;;;;;58.47;47.60;;;;;;;7.69;83.37;98433.78;5051698;28;20282;-77
2021/11/01 06:51:58;;;;;;;56.60;46.60;;;;;;;7.89;83.34;98428.09;5054715;28;20228;-76
2021/11/01 07:25:34;;;;;;;49.10;41.23;;;;;;;8.83;79.47;98433.13;5085477;28;20251;-77
2021/11/01 08:17:30;;;;;;;47.73;41.33;;;;;;;9.19;77.69;98426.59;5080389;28;20232;-77
2021/11/01 08:22:39;;;;;;;44.50;39.27;;;;;;;10.24;74.47;98423.25;5021707;28;20585;-76
2021/11/01 08:25:31;;;;;;;46.47;40.07;;;;;;;10.37;73.81;98427.44;5082820;22;20220;-76
2021/11/01 08:36:41;;;;;;;47.57;40.13;;;;;;;10.60;72.98;98408.44;5087197;28;20217;-77
2021/11/01 08:44:57;;;;;;;44.47;39.60;;;;;;;10.89;72.28;98382.28;5092337;22;20236;-76
2021/11/01 08:48:03;;;;;;;42.73;38.17;;;;;;;10.95;71.87;98386.63;5049226;28;20231;-77
2021/11/01 09:01:32;;;;;;;44.60;39.20;;;;;;;11.28;70.52;98381.06;5024494;28;20230;-76
2021/11/01 09:04:19;;;;;;;42.83;38.33;;;;;;;11.46;70.26;98382.56;5055397;23;20225;-77
2021/11/01 09:24:04;;;;;;;40.77;36.57;;;;;;;11.96;69.18;98357.19;5069518;28;20221;-76
2021/11/01 09:26:40;;;;;;;40.07;35.80;;;;;;;11.93;69.36;98349.69;5073432;28;20221;-76
2021/11/01 09:37:29;;;;;;;35.70;32.00;;;;;;;12.50;67.77;98342.47;5083921;28;20260;-76
2021/11/01 09:43:04;;;;;;;34.50;30.90;;;;;;;12.76;65.65;98306.53;5023858;28;20212;-76
2021/11/01 09:45:36;;;;;;;35.03;31.33;;;;;;;13.00;65.24;98314.09;5069226;23;20219;-77
2021/11/01 09:48:06;;;;;;;33.23;29.63;;;;;;;13.04;65.37;98309.81;5075782;23;20232;-76
2021/11/01 09:50:35;;;;;;;32.13;28.90;;;;;;;13.19;64.56;98307.16;5085173;28;20200;-77
2021/11/01 09:53:28;;;;;;;31.20;28.07;;;;;;;13.26;64.39;98317.63;5090189;22;20252;-76
2021/11/01 09:56:07;;;;;;;31.00;27.70;;;;;;;13.43;63.90;98308.25;5055813;28;20213;-77
2021/11/01 10:01:22;;;;;;;28.57;25.57;;;;;;;13.60;62.76;98300.69;5089050;28;20225;-76
2021/11/01 10:03:53;;;;;;;30.50;27.30;;;;;;;13.60;62.68;98297.19;5089016;28;20229;-76
2021/11/01 10:06:27;;;;;;;30.13;26.60;;;;;;;13.73;62.34;98299.31;5088065;28;20230;-76
2021/11/01 10:09:03;;;;;;;29.33;26.43;;;;;;;13.70;61.91;98316.03;5090848;28;20228;-76
2021/11/01 10:11:39;;;;;;;27.70;25.00;;;;;;;13.85;61.81;98310.63;5073544;28;20185;-77
2021/11/01 10:14:08;;;;;;;27.63;24.83;;;;;;;13.98;61.07;98307.34;5074025;28;20527;-76
2021/11/01 10:19:43;;;;;;;26.97;24.17;;;;;;;14.20;60.56;98301.63;5045559;22;20519;-77
2021/11/01 10:22:19;;;;;;;27.80;24.90;;;;;;;14.24;60.48;98296.47;5075389;23;20233;-76
2021/11/01 10:24:51;;;;;;;25.87;23.10;;;;;;;14.31;59.56;98288.94;5066731;28;20235;-76
2021/11/01 10:27:36;;;;;;;26.50;23.93;;;;;;;14.41;59.45;98283.53;5084402;28;20225;-76
2021/11/01 10:30:11;;;;;;;25.43;22.83;;;;;;;14.47;58.96;98277.81;5067523;28;20232;-77
2021/11/01 10:32:44;;;;;;;24.77;22.17;;;;;;;14.61;58.62;98288.00;5068509;28;20250;-76
2021/11/01 10:35:22;;;;;;;25.57;22.87;;;;;;;14.70;58.77;98270.97;5104143;22;20235;-77
2021/11/01 10:38:11;;;;;;;25.70;23.20;;;;;;;14.67;58.33;98259.94;5087816;28;20307;-77
2021/11/01 11:31:01;;;;;;;20.83;18.83;;;;;;;16.33;53.41;98219.75;5031852;28;20231;-82
2021/11/01 11:47:26;;;;;;;16.90;15.40;;;;;;;16.76;51.54;98189.97;5042745;28;20707;-79
2021/11/01 11:49:54;;;;;;;16.40;14.90;;;;;;;16.87;50.66;98196.84;5041924;28;20231;-78
2021/11/01 11:52:23;;;;;;;15.47;13.97;;;;;;;17.00;51.06;98199.59;5057385;28;20237;-83
2021/11/01 11:54:57;;;;;;;15.57;14.10;;;;;;;17.11;50.65;98189.41;5037507;28;20628;-78
2021/11/01 11:57:26;;;;;;;14.77;13.30;;;;;;;17.25;50.25;98192.94;5038189;28;20236;-86
2021/11/01 11:59:54;;;;;;;13.13;11.47;;;;;;;17.32;48.86;98189.84;5036672;28;20252;-81
2021/11/01 12:02:38;;;;;;;11.70;10.53;;;;;;;17.41;47.84;98201.59;5037848;28;20224;-85
2021/11/01 12:05:41;;;;;;;10.33;9.33;;;;;;;17.49;46.97;98199.03;5054813;28;20221;-78
2021/11/01 12:08:18;;;;;;;10.93;9.87;;;;;;;17.45;46.85;98186.38;5054660;28;20226;-81
2021/11/01 12:14:17;;;;;;;9.97;8.97;;;;;;;17.56;46.43;98180.47;5054620;28;20228;-86
2021/11/01 12:19:17;;;;;;;10.03;9.03;;;;;;;17.60;46.33;98180.69;4999455;28;20229;-82
2021/11/01 12:21:49;;;;;;;10.07;9.07;;;;;;;17.61;46.18;98168.75;5054995;28;20636;-84
2021/11/01 12:24:23;;;;;;;9.60;8.70;;;;;;;17.68;46.47;98169.19;5054363;28;20231;-85
2021/11/01 12:26:59;;;;;;;10.40;9.40;;;;;;;17.80;46.96;98166.75;5038580;28;20274;-81
2021/11/01 12:29:27;;;;;;;10.17;9.27;;;;;;;17.80;46.22;98165.94;5055395;28;20221;-77
2021/11/01 12:32:12;;;;;;;10.03;9.13;;;;;;;17.80;46.04;98158.63;5055396;28;20654;-78
2021/11/01 12:34:54;;;;;;;9.33;8.47;;;;;;;17.85;46.41;98161.25;5070047;28;20221;-77
2021/11/01 12:37:27;;;;;;;9.47;8.63;;;;;;;17.87;46.05;98155.53;5055769;28;20305;-84
2021/11/01 12:57:32;;;;;;;9.87;8.87;;;;;;;17.87;46.38;98164.44;5055028;28;20232;-83
2021/11/01 12:59:59;;;;;;;9.87;8.87;;;;;;;17.92;46.76;98155.41;5021259;28;20226;-84
2021/11/01 13:02:27;;;;;;;9.93;9.03;;;;;;;17.96;46.40;98156.41;5053735;28;20229;-79
2021/11/01 13:04:56;;;;;;;9.90;8.90;;;;;;;17.96;46.64;98142.88;5054950;28;20625;-78
2021/11/01 13:18:12;;;;;;;9.77;8.80;;;;;;;18.11;46.19;98147.94;5054333;28;20221;-78
2021/11/01 13:20:47;;;;;;;10.30;9.30;;;;;;;18.12;46.22;98160.41;5054496;28;20232;-81
2021/11/01 13:23:16;;;;;;;9.43;8.63;;;;;;;18.08;46.70;98164.81;5037924;28;20232;-80
2021/11/01 13:25:50;;;;;;;10.13;9.17;;;;;;;18.12;46.53;98159.59;5037039;28;20225;-81
2021/11/01 13:38:51;;;;;;;10.57;9.50;;;;;;;18.24;47.95;98162.59;5057665;28;20225;-85
2021/11/01 13:41:38;;;;;;;10.07;9.17;;;;;;;18.25;48.04;98164.19;5057789;28;20348;-79
2021/11/01 13:44:12;;;;;;;10.50;9.47;;;;;;;18.20;47.70;98164.28;5057229;28;20236;-86
2021/11/01 13:46:50;;;;;;;9.90;8.97;;;;;;;18.22;48.22;98164.81;5057251;28;20295;-85
2021/11/01 13:49:20;;;;;;;9.87;8.97;;;;;;;18.18;47.85;98159.19;5040817;28;20225;-80
2021/11/01 13:51:50;;;;;;;9.70;8.73;;;;;;;18.11;47.73;98149.84;5041183;28;20229;-80
2021/11/01 13:54:33;;;;;;;10.60;9.50;;;;;;;18.15;47.76;98148.16;5056728;28;20237;-81
2021/11/01 13:57:03;;;;;;;10.63;9.57;;;;;;;18.07;48.36;98135.31;5042484;28;20244;-79
2021/11/01 13:59:54;;;;;;;11.10;9.93;;;;;;;18.03;48.93;98140.53;5057035;28;20245;-83
2021/11/01 14:13:33;;;;;;;10.73;9.63;;;;;;;17.35;51.12;98144.06;5057041;28;20236;-80
2021/11/01 14:54:50;;;;;;;11.50;10.40;;;;;;;16.16;55.18;98168.09;5056427;28;20232;-77
2021/11/01 15:28:31;;;;;;;15.57;13.43;;;;;;;14.04;61.88;98133.91;5055432;28;20233;-85
2021/11/01 16:18:03;;;;;;;37.13;33.43;;;;;;;11.43;68.65;98184.63;5047483;22;20227;-77
2021/11/01 16:20:30;;;;;;;38.40;33.57;;;;;;;11.32;69.16;98189.13;5004003;28;20259;-77
2021/11/01 16:25:39;;;;;;;38.80;33.90;;;;;;;11.14;69.63;98194.91;5048304;28;20272;-77
2021/11/01 16:28:16;;;;;;;38.10;34.00;;;;;;;10.96;70.15;98173.88;5043319;28;20206;-77
2021/11/01 16:31:36;;;;;;;41.47;35.27;;;;;;;10.97;70.52;98195.03;5048652;28;20300;-77
2021/11/01 16:34:14;;;;;;;39.47;35.33;;;;;;;10.94;70.48;98197.44;5048166;23;20241;-77
2021/11/01 16:39:48;;;;;;;40.13;35.47;;;;;;;10.82;71.19;98196.81;5002691;28;20231;-77
2021/11/01 16:42:22;;;;;;;39.50;33.83;;;;;;;10.70;71.62;98199.66;5064564;22;20255;-77
2021/11/01 16:44:49;;;;;;;39.30;34.90;;;;;;;10.67;71.60;98196.66;5044207;23;20330;-77
2021/11/01 16:47:38;;;;;;;38.90;34.53;;;;;;;10.54;72.06;98193.34;5050860;28;20248;-77
2021/11/01 16:50:18;;;;;;;40.67;36.27;;;;;;;10.57;71.74;98190.16;5078901;23;20252;-77
2021/11/01 16:53:05;;;;;;;42.53;36.33;;;;;;;10.69;71.94;98208.72;5055075;28;20256;-77
2021/11/01 16:55:52;;;;;;;41.00;36.10;;;;;;;10.50;71.82;98202.94;5053880;28;20217;-77
2021/11/01 16:58:40;;;;;;;42.57;36.50;;;;;;;10.25;73.00;98193.84;5083264;23;20244;-77
2021/11/01 17:01:25;;;;;;;41.30;36.80;;;;;;;10.40;72.99;98205.53;5055236;28;20218;-77
2021/11/01 17:04:06;;;;;;;42.50;37.27;;;;;;;10.30;73.26;98212.66;5069395;28;20237;-77
2021/11/01 17:24:07;;;;;;;45.10;37.10;;;;;;;9.86;74.41;98220.66;5035065;28;20252;-77
2021/11/01 17:35:09;;;;;;;44.63;36.60;;;;;;;9.78;75.07;98210.41;5069222;28;20245;-77
2021/11/01 18:41:39;;;;;;;41.33;33.17;;;;;;;9.56;74.28;98177.50;5112927;22;20259;-77
2021/11/01 18:52:43;;;;;;;42.03;33.10;;;;;;;9.60;74.20;98182.13;5072717;23;20241;-79
2021/11/01 18:55:12;;;;;;;42.37;33.33;;;;;;;9.58;74.31;98191.44;5072345;28;20200;-79
2021/11/01 18:57:41;;;;;;;42.57;32.97;;;;;;;9.72;74.19;98195.34;5089281;28;20224;-79
2021/11/01 19:00:09;;;;;;;40.27;33.17;;;;;;;9.60;74.13;98178.63;5074589;28;20271;-79
2021/11/01 19:02:48;;;;;;;39.73;32.63;;;;;;;9.72;73.81;98188.13;5074175;28;20594;-79
2021/11/01 19:08:07;;;;;;;40.97;32.70;;;;;;;9.75;73.34;98221.63;5080103;28;20268;-79
2021/11/01 20:14:58;;;;;;;44.03;35.60;;;;;;;9.93;74.59;98196.41;5076784;28;20251;-79
2021/11/01 21:25:21;;;;;;;57.17;47.87;;;;;;;9.83;81.30;98194.44;5037707;28;20222;-80
2021/11/01 21:27:51;;;;;;;55.87;45.50;;;;;;;9.69;81.63;98155.75;5026974;28;20265;-80
2021/11/01 21:30:18;;;;;;;49.77;40.83;;;;;;;9.80;81.07;98162.03;5016015;28;20340;-80
2021/11/01 21:32:45;;;;;;;50.20;40.47;;;;;;;9.77;80.75;98163.31;5018705;28;20297;-80
2021/11/01 21:35:16;;;;;;;53.03;41.33;;;;;;;9.71;80.96;98159.78;5008078;28;20321;-81
2021/11/01 21:37:44;;;;;;;51.83;41.20;;;;;;;9.67;81.59;98160.53;5026315;28;20249;-80
2021/11/01 21:40:14;;;;;;;52.03;41.27;;;;;;;9.75;81.71;98172.66;4992643;28;20230;-80
2021/11/01 21:42:43;;;;;;;52.23;42.33;;;;;;;9.65;82.19;98182.19;5009039;28;20219;-80
2021/11/01 21:45:10;;;;;;;54.10;42.60;;;;;;;9.68;81.80;98191.56;5008306;28;20277;-80
2021/11/01 21:47:39;;;;;;;51.70;41.00;;;;;;;9.62;82.35;98190.69;5019132;23;20347;-81
2021/11/01 21:50:10;;;;;;;52.13;42.43;;;;;;;9.58;82.40;98186.88;5083654;28;20228;-80
2021/11/01 21:53:03;;;;;;;54.53;42.33;;;;;;;9.44;82.42;98171.47;5071763;28;20303;-80
2021/11/01 21:55:31;;;;;;;52.90;42.23;;;;;;;9.45;83.12;98176.56;5087499;28;20204;-81
2021/11/01 22:01:08;;;;;;;53.07;40.87;;;;;;;9.45;82.88;98168.53;5087895;28;20228;-81
2021/11/01 22:23:09;;;;;;;56.40;40.87;;;;;;;9.24;84.03;98186.16;5104915;28;20261;-81
2021/11/01 22:25:45;;;;;;;58.37;42.83;;;;;;;9.23;84.55;98189.09;5106617;28;20266;-81
2021/11/01 22:39:32;;;;;;;55.47;41.47;;;;;;;9.22;84.82;98177.59;5102923;28;20232;-81
2021/11/01 22:56:33;;;;;;;55.77;40.93;;;;;;;9.24;84.82;98180.81;5100332;28;20233;-82
2021/11/01 22:58:41;;;;;;;58.93;42.57;;;;;;;9.21;84.80;98192.00;5060554;28;20239;-82
2021/11/01 23:31:50;;;;;;;59.47;43.97;;;;;;;9.27;86.66;98156.28;5042085;28;20238;-82
2021/11/01 23:34:21;;;;;;;60.63;44.40;;;;;;;9.28;86.31;98143.75;5067791;28;20238;-81
2021/11/01 23:36:57;;;;;;;61.60;44.70;;;;;;;9.37;86.71;98165.50;5066945;28;20232;-82
2021/11/01 23:39:29;;;;;;;64.87;44.73;;;;;;;9.36;87.02;98158.53;5083820;28;20236;-82
2021/11/01 23:42:33;;;;;;;61.10;45.10;;;;;;;9.35;86.70;98148.88;5085883;28;20212;-82
2021/11/01 23:45:12;;;;;;;60.83;43.53;;;;;;;9.31;86.88;98134.41;5086114;28;20241;-81
2021/11/01 23:47:41;;;;;;;60.43;43.70;;;;;;;9.39;86.77;98150.00;5083156;28;20232;-82
2021/11/01 23:50:10;;;;;;;62.63;45.10;;;;;;;9.39;86.75;98145.47;5067637;28;20225;-82
2021/11/01 23:52:42;;;;;;;59.07;44.10;;;;;;;9.33;86.93;98138.47;5084260;28;20224;-82
2021/11/01 23:55:09;;;;;;;60.43;45.67;;;;;;;9.43;86.94;98146.59;5068649;28;20259;-82
2021/11/01 23:57:40;;;;;;;60.33;44.30;;;;;;;9.44;86.74;98144.72;5076660;28;20236;-82
